Latest Coastal Weather Observations for Devonport Airport

IDT60701

Issued at 6:32 am EDT Friday 19 December 2014 (issued every 10 minutes, with the page automatically refreshed every 10 minutes)

About coastal observations | Map of coastal stations | Coastal observations for TAS | Marine services | Other Formats
Station Details ID: 091126 Name: DEVONPORT AIRPORT Lat: -41.17 Lon: 146.43 Height: 8.0 m
Data from the previous 72 hours. | See also: Recent months at Devonport Airport
Date/Time
EDT
Temp

°C
Wind Pressure Rain
since 9am
mm
Weather Cloud Vis
km
Sea
Height
m
Swell
Dir
 
Speed
knots
Gust
knots
hPa Trend Height
m
Period
s
Dir
19/06:30am 8.7 WSW 6 7 1011.7 - 1.8 - - 10 - - - -
19/06:00am 8.7 WSW 5 7 1011.3 - 1.8 - - 10 - - - -
19/05:30am 8.5 WSW 6 7 1010.9 - 1.8 - - 10 - - - -
19/05:00am 9.1 WNW 11 13 1010.3 - 1.8 - - 10 - - - -
19/04:30am 7.4 WSW 7 8 1010.1 - 1.8 - - 10 - - - -
19/04:00am 8.0 W 5 6 1010.0 - 1.8 - - 10 - - - -
19/03:30am 8.7 W 5 6 1009.8 - 1.8 - - 10 - - - -
19/02:30am 9.2 W 5 7 1009.6 - 1.8 - - 10 - - - -
19/02:00am 9.0 W 7 8 1009.6 - 1.8 - - 10 - - - -
19/01:30am 9.7 WNW 11 12 1009.4 - 1.8 - - 10 - - - -
19/01:00am 8.0 W 10 12 1009.2 - 1.8 - - 10 - - - -
19/12:30am 9.6 WSW 5 5 1009.2 - 1.8 - - 10 - - - -
 
Date/Time
EDT
Temp

°C
Wind Pressure Rain
since 9am
mm
Weather Cloud Vis
km
Sea
Height
m
Swell
Dir
 
Speed
knots
Gust
knots
hPa Trend Height
m
Period
s
Dir
18/11:30pm 10.8 WSW 6 7 1008.6 - 1.8 - - 10 - - - -
18/11:00pm 9.9 W 6 7 1008.4 - 1.8 - - 10 - - - -
18/10:30pm 11.5 SW 5 7 1008.2 - 1.8 - - 10 - - - -
18/10:00pm 11.4 WSW 8 11 1007.8 - 1.8 - - 10 - - - -
18/09:30pm 12.6 W 10 15 1007.4 - 1.8 - - 10 - - - -
18/09:00pm 13.0 W 11 14 1006.7 - 1.8 - - 10 - - - -
18/08:30pm 13.7 W 10 14 1006.4 - 1.8 - - 10 - - - -
18/08:00pm 14.8 WSW 11 14 1006.0 - 1.8 - - 10 - - - -
18/07:30pm 15.5 W 12 16 1005.5 - 1.8 - - 10 - - - -
18/07:00pm 15.3 WSW 11 15 1005.1 - 1.8 - Partly cloudy 10 - - - -
18/06:30pm 14.7 NW 17 21 1004.6 - 1.8 - Partly cloudy 10 - - - -
18/06:00pm 14.9 NW 13 16 1004.4 - 1.8 - - 10 - - - -
18/05:30pm 15.6 NW 11 14 1004.0 - 1.8 - Partly cloudy 10 - - - -
18/05:00pm 14.2 W 8 9 1004.2 - 1.8 - Partly cloudy 10 - - - -
18/04:30pm 13.0 WSW 5 8 1004.0 - 1.8 - Partly cloudy 10 - - - -
18/04:00pm 13.3 W 17 21 1004.4 - 0.6 - Cloudy 10 - - - -
18/03:30pm 14.3 WNW 14 19 1004.0 - 0.2 - Partly cloudy 10 - - - -
18/03:12pm 13.9 WNW 25 33 1003.9 - 0.0 - Partly cloudy 9 - - - -
18/03:04pm 16.0 NW 20 33 1003.3 - 0.0 - Partly cloudy 10 - - - -
18/03:00pm 17.1 NW 19 23 1003.3 - 0.0 - Mostly cloudy 10 - - - -
18/02:30pm 17.2 NW 15 21 1003.3 - 0.0 - Partly cloudy 10 - - - -
18/02:00pm 17.9 NW 14 19 1003.5 - 0.0 - Partly cloudy 10 - - - -
18/01:30pm 17.9 NNW 14 17 1003.6 - 0.0 - Partly cloudy 10 - - - -
18/01:00pm 18.0 NNW 13 16 1003.7 - 0.0 - Partly cloudy 10 - - - -
18/12:30pm 17.5 NNW 14 17 1004.0 - 0.0 - Partly cloudy 10 - - - -
18/12:00pm 17.7 N 15 18 1004.2 - 0.0 - Cloudy 10 - - - -
18/11:30am 17.0 N 17 21 1004.2 - 0.0 - Cloudy 10 - - - -
18/11:00am 17.9 N 16 21 1004.3 - 0.0 - Cloudy 10 - - - -
18/10:30am 16.8 N 15 18 1004.6 - 0.0 - Partly cloudy 10 - - - -
18/10:00am 17.1 N 15 18 1004.9 - 0.0 - Partly cloudy 10 - - - -
18/09:30am 16.7 N 16 21 1005.2 - 0.0 - Partly cloudy 10 - - - -
18/09:00am 16.0 NNW 15 19 1005.4 - 0.0 - Cloudy 10 - - - -
18/08:30am 15.9 NNW 13 16 1005.6 - 0.0 - Partly cloudy 10 - - - -
18/08:00am 15.5 N 12 16 1005.6 - 0.0 - Partly cloudy 10 - - - -
18/07:30am 15.3 NNW 13 17 1005.6 - 0.0 - Partly cloudy 10 - - - -
18/07:00am 11.3 S 6 8 1005.6 - 0.0 - Partly cloudy 10 - - - -
18/06:30am 10.6 S 7 8 1005.7 - 0.0 - Partly cloudy 10 - - - -
18/06:00am 10.3 S 6 8 1005.7 - 0.0 - Cloudy 10 - - - -
18/05:30am 10.6 SE 6 6 1005.9 - 0.0 - Partly cloudy 10 - - - -
18/05:00am 10.3 S 4 5 1006.1 - 0.0 - Partly cloudy 10 - - - -
18/04:30am 9.8 SSE 5 6 1006.0 - 0.0 - Partly cloudy 10 - - - -
18/04:00am 8.6 SSE 5 5 1006.1 - 0.0 - Partly cloudy 10 - - - -
18/03:30am 7.7 SSE 5 6 1006.1 - 0.0 - - 10 - - - -
18/03:00am 7.7 S 5 6 1006.1 - 0.0 - - 10 - - - -
18/02:30am 7.4 S 4 5 1006.1 - 0.0 - - 10 - - - -
18/02:00am 7.9 S 4 4 1006.1 - 0.0 - - 10 - - - -
18/01:30am 9.4 SW 3 4 1006.4 - 0.0 - - 10 - - - -
18/01:00am 10.8 SW 4 5 1006.5 - 0.0 - - 10 - - - -
18/12:30am 11.7 SW 4 6 1006.7 - 0.0 - - 10 - - - -
18/12:00am 11.3 W 6 7 1007.0 - 0.0 - Mostly cloudy 10 - - - -
 
Date/Time
EDT
Temp

°C
Wind Pressure Rain
since 9am
mm
Weather Cloud Vis
km
Sea
Height
m
Swell
Dir
 
Speed
knots
Gust
knots
hPa Trend Height
m
Period
s
Dir
17/11:30pm 11.7 WSW 7 8 1007.0 - 0.0 - - 10 - - - -
17/11:00pm 11.3 W 9 10 1007.3 - 0.0 - - 10 - - - -
17/10:30pm 12.7 W 10 12 1007.5 - 0.0 - - 10 - - - -
17/10:00pm 12.8 W 10 11 1007.5 - 0.0 - - 10 - - - -
17/09:30pm 12.9 W 9 10 1007.4 - 0.0 - - 10 - - - -
17/09:00pm 14.1 W 11 13 1007.3 - 0.0 - Partly cloudy 10 - - - -
17/08:30pm 15.7 WNW 13 17 1007.1 - 0.0 - - 10 - - - -
17/08:00pm 16.4 WNW 13 17 1006.8 - 0.0 - - 10 - - - -
17/07:30pm 16.8 WNW 18 22 1006.5 - 0.0 - Partly cloudy 10 - - - -
17/07:00pm 17.1 WNW 16 20 1006.1 - 0.0 - Partly cloudy 10 - - - -
17/06:30pm 17.4 W 17 21 1005.7 - 0.0 - Partly cloudy 10 - - - -
17/06:00pm 17.0 NW 18 22 1005.4 - 0.0 - Mostly cloudy 10 - - - -
17/05:30pm 17.6 NW 21 26 1005.5 - 0.0 - Partly cloudy 10 - - - -
17/05:00pm 16.8 NW 20 26 1005.7 - 0.0 - Partly cloudy 10 - - - -
17/04:30pm 16.7 NW 20 26 1005.6 - 0.0 - Partly cloudy 10 - - - -
17/04:00pm 18.8 NW 19 24 1005.5 - 0.0 - Partly cloudy 10 - - - -
17/03:30pm 17.6 NW 17 21 1005.8 - 0.0 - Partly cloudy 10 - - - -
17/03:00pm 16.2 NW 20 25 1005.9 - 0.0 - Cloudy 10 - - - -
17/02:30pm 17.3 NW 19 24 1005.6 - 0.0 - Partly cloudy 10 - - - -
17/02:00pm 16.1 NW 19 25 1005.8 - 0.0 - Partly cloudy 10 - - - -
17/01:30pm 15.8 NW 16 21 1006.0 - 0.0 - Partly cloudy 10 - - - -
17/01:00pm 15.4 NW 14 19 1006.1 - 0.0 - Partly cloudy 10 - - - -
17/12:30pm 16.5 W 8 16 1006.0 - 0.0 - Cloudy 10 - - - -
17/12:00pm 14.9 W 14 18 1006.2 - 0.0 Showers Cloudy 10 - - - -
17/11:30am 15.9 NW 10 16 1005.6 - 0.0 - Partly cloudy 10 - - - -
17/11:00am 16.1 W 11 17 1005.4 - 0.0 - Partly cloudy 10 - - - -
17/10:30am 14.9 WNW 9 15 1005.3 - 0.0 - Partly cloudy 10 - - - -
17/10:00am 15.4 WSW 13 20 1005.0 - 0.0 - Partly cloudy 10 - - - -
17/09:30am 14.5 W 16 21 1005.0 - 0.0 - Partly cloudy 10 - - - -
17/09:00am 14.3 W 16 21 1004.8 - 1.4 - - 10 - - - -
17/08:30am 13.8 W 10 15 1004.4 - 1.4 - Partly cloudy 10 - - - -
17/08:00am 13.2 WSW 7 9 1004.1 - 1.4 - - 10 - - - -
17/07:30am 12.2 W 9 11 1003.6 - 1.4 - - 10 - - - -
17/07:00am 11.5 W 8 12 1003.1 - 1.4 - - 10 - - - -
17/06:30am 10.6 WNW 8 10 1002.5 - 1.4 - - 10 - - - -
17/06:00am 9.2 WNW 6 8 1001.8 - 1.4 - - 10 - - - -
17/05:30am 9.9 W 5 6 1001.4 - 1.4 - - 10 - - - -
17/05:00am 9.8 W 9 11 1000.9 - 1.4 - - 10 - - - -
17/04:30am 10.1 W 12 14 1000.3 - 1.4 - - 10 - - - -
17/04:00am 10.2 W 12 16 999.7 - 1.4 - - 10 - - - -
17/03:30am 10.5 W 13 17 999.4 - 1.4 - - 10 - - - -
17/03:00am 10.6 W 11 15 999.1 - 1.4 - - 10 - - - -
17/02:30am 10.7 W 11 14 998.9 - 1.4 - - 10 - - - -
17/02:00am 11.3 W 13 19 998.3 - 1.4 - - 10 - - - -
17/01:30am 11.1 W 10 13 997.6 - 1.4 - - 10 - - - -
17/01:00am 11.8 W 15 19 997.4 - 1.4 - - 10 - - - -
17/12:30am 12.3 W 17 21 996.8 - 1.4 - Partly cloudy 10 - - - -
17/12:00am 12.6 W 18 24 996.8 - 1.4 - Cloudy 10 - - - -
 
Date/Time
EDT
Temp

°C
Wind Pressure Rain
since 9am
mm
Weather Cloud Vis
km
Sea
Height
m
Swell
Dir
 
Speed
knots
Gust
knots
hPa Trend Height
m
Period
s
Dir
16/11:30pm 12.3 WNW 14 18 996.3 - 1.4 - Partly cloudy 10 - - - -
16/11:00pm 12.0 W 14 18 995.5 - 1.4 - Partly cloudy 10 - - - -
16/10:30pm 13.0 WNW 17 23 995.4 - 1.4 - Partly cloudy 10 - - - -
16/10:00pm 13.0 W 16 21 994.6 - 1.4 - Partly cloudy 10 - - - -
16/09:30pm 13.1 WNW 16 22 993.7 - 1.4 - Partly cloudy 10 - - - -
16/09:00pm 12.9 W 19 25 992.8 - 1.4 Showers Cloudy 10 - - - -
16/08:30pm 14.2 WNW 23 30 992.2 - 1.4 - Partly cloudy 10 - - - -
16/08:00pm 14.8 WNW 23 28 991.5 - 1.4 - Partly cloudy 10 - - - -
16/07:30pm 15.4 WNW 22 27 991.4 - 1.4 - Partly cloudy 10 - - - -
16/07:00pm 15.4 WNW 21 28 991.1 - 1.4 - Partly cloudy 10 - - - -
16/06:30pm 14.8 WNW 19 24 991.2 - 1.4 - Partly cloudy 10 - - - -
16/06:07pm 14.2 WNW 20 27 990.8 - 1.4 - Partly cloudy 10 - - - -
16/06:00pm 13.7 WNW 25 37 990.7 - 1.4 Showers Mostly cloudy 9 - - - -
16/05:56pm 13.5 WNW 30 43 990.7 - 1.4 - Partly cloudy 5 - - - -
16/05:46pm 13.9 WNW 33 50 990.4 - 0.8 - Partly cloudy 5 - - - -
16/05:41pm 15.9 WNW 29 39 990.4 - 0.0 - Partly cloudy 10 - - - -
16/05:30pm 16.7 NW 31 40 989.9 - 0.0 - Partly cloudy 10 - - - -
16/05:26pm 16.7 NW 30 40 989.9 - 0.0 - Partly cloudy 10 - - - -
16/05:00pm 17.1 WNW 27 36 988.6 - 0.0 - Partly cloudy 10 - - - -
16/04:31pm 18.1 NW 25 35 989.4 - 0.0 - Partly cloudy 10 - - - -
16/04:30pm 18.0 NW 26 35 989.5 - 0.0 - Partly cloudy 10 - - - -
16/04:00pm 17.9 NW 21 27 989.4 - 0.0 - Cloudy 10 - - - -
16/03:39pm 18.1 NW 29 39 990.0 - 0.0 - - 10 - - - -
16/03:30pm 18.0 NW 30 38 989.8 - 0.0 - - 10 - - - -
16/03:04pm 19.5 NW 25 35 989.7 - 0.0 - Partly cloudy 10 - - - -
16/03:00pm 19.4 NW 25 31 989.9 - 0.0 - Mostly cloudy 10 - - - -
16/02:53pm 19.5 NW 25 31 990.0 - 0.0 - Partly cloudy 10 - - - -
16/02:30pm 19.8 NW 17 21 989.4 - 0.0 - - 10 - - - -
16/02:00pm 20.6 NW 18 23 990.4 - 0.0 - Partly cloudy 10 - - - -
16/01:51pm 20.4 NW 18 22 990.6 - 0.0 - Partly cloudy 10 - - - -
16/01:30pm 19.4 NNW 15 19 990.7 - 0.0 - Cloudy 10 - - - -
16/01:24pm 19.4 NNW 15 19 990.7 - 0.0 - Cloudy 10 - - - -
16/01:00pm 20.2 N 12 15 990.5 - 0.0 - Partly cloudy 10 - - - -
16/12:38pm 20.3 N 11 14 990.7 - 0.0 - Partly cloudy 10 - - - -
16/12:30pm 19.9 N 12 14 990.9 - 0.0 - Partly cloudy 10 - - - -
16/12:00pm 19.5 NNE 13 17 991.4 - 0.0 - Cloudy 10 - - - -
16/11:30am 20.1 NE 16 20 991.5 - 0.0 - Cloudy 10 - - - -
16/11:21am 20.4 NE 18 23 991.4 - 0.0 - Cloudy 10 - - - -
16/11:00am 21.2 NE 18 23 991.7 - 0.0 - Cloudy 10 - - - -
16/10:30am 21.6 NE 14 17 992.4 - 0.0 - Cloudy 10 - - - -
16/10:00am 21.2 NE 13 16 993.2 - 0.0 - Partly cloudy 10 - - - -
16/09:30am 20.9 ENE 12 16 994.0 - 0.0 - Partly cloudy 10 - - - -
16/09:00am 19.2 SSE 7 10 994.6 - 0.0 - Partly cloudy 10 - - - -
16/08:30am 18.5 S 9 12 994.8 - 0.0 - Partly cloudy 10 - - - -
16/08:00am 17.3 S 10 12 994.9 - 0.0 - Partly cloudy 10 - - - -
16/07:30am 15.3 S 9 12 995.0 - 0.0 - Partly cloudy 10 - - - -
16/07:00am 13.8 SSE 10 13 995.4 - 0.0 - Partly cloudy 10 - - - -

Other Formats:

Comma delimited format used in spreadsheet applications
http://www.bom.gov.au/fwo/IDT60701/IDT60701.95960.axf

JavaScript Object Notation format (JSON) in row-major order
http://www.bom.gov.au/fwo/IDT60701/IDT60701.95960.json